sensor_id;sensor_type;location;lat;lon;timestamp;P1;durP1;ratioP1;P2;durP2;ratioP2
18048;SDS011;9149;47.002;8.604;2023-06-22T00:00:30;9.85;;;3.78;;
18048;SDS011;9149;47.002;8.604;2023-06-22T00:02:58;7.97;;;4.18;;
18048;SDS011;9149;47.002;8.604;2023-06-22T00:05:26;10.52;;;4.47;;
18048;SDS011;9149;47.002;8.604;2023-06-22T00:07:55;10.93;;;4.30;;
18048;SDS011;9149;47.002;8.604;2023-06-22T00:10:22;11.93;;;4.22;;
18048;SDS011;9149;47.002;8.604;2023-06-22T00:12:50;15.25;;;4.35;;
18048;SDS011;9149;47.002;8.604;2023-06-22T00:15:18;12.63;;;4.10;;
18048;SDS011;9149;47.002;8.604;2023-06-22T00:17:45;7.15;;;3.65;;
18048;SDS011;9149;47.002;8.604;2023-06-22T00:20:13;13.73;;;4.50;;
18048;SDS011;9149;47.002;8.604;2023-06-22T00:22:41;18.23;;;3.95;;
18048;SDS011;9149;47.002;8.604;2023-06-22T00:25:11;7.25;;;3.70;;
18048;SDS011;9149;47.002;8.604;2023-06-22T00:27:38;13.40;;;4.20;;
18048;SDS011;9149;47.002;8.604;2023-06-22T00:30:07;8.63;;;3.63;;
18048;SDS011;9149;47.002;8.604;2023-06-22T00:32:34;9.73;;;4.05;;
18048;SDS011;9149;47.002;8.604;2023-06-22T00:35:02;11.30;;;3.90;;
18048;SDS011;9149;47.002;8.604;2023-06-22T00:37:30;15.52;;;4.25;;
18048;SDS011;9149;47.002;8.604;2023-06-22T00:39:58;17.23;;;3.65;;
18048;SDS011;9149;47.002;8.604;2023-06-22T00:42:27;12.85;;;3.75;;
18048;SDS011;9149;47.002;8.604;2023-06-22T00:44:55;19.05;;;4.20;;
18048;SDS011;9149;47.002;8.604;2023-06-22T00:47:23;8.15;;;3.90;;
18048;SDS011;9149;47.002;8.604;2023-06-22T00:49:51;11.90;;;3.95;;
18048;SDS011;9149;47.002;8.604;2023-06-22T00:52:19;7.95;;;3.55;;
18048;SDS011;9149;47.002;8.604;2023-06-22T00:54:48;13.30;;;3.85;;
18048;SDS011;9149;47.002;8.604;2023-06-22T00:57:17;11.98;;;4.03;;
18048;SDS011;9149;47.002;8.604;2023-06-22T00:59:46;9.15;;;4.13;;
18048;SDS011;9149;47.002;8.604;2023-06-22T01:02:14;8.48;;;4.03;;
18048;SDS011;9149;47.002;8.604;2023-06-22T01:04:42;9.35;;;3.70;;
18048;SDS011;9149;47.002;8.604;2023-06-22T01:07:11;9.82;;;4.20;;
18048;SDS011;9149;47.002;8.604;2023-06-22T01:09:43;7.95;;;4.50;;
18048;SDS011;9149;47.002;8.604;2023-06-22T01:12:11;13.60;;;4.53;;
18048;SDS011;9149;47.002;8.604;2023-06-22T01:14:40;7.70;;;3.95;;
18048;SDS011;9149;47.002;8.604;2023-06-22T01:17:10;8.52;;;4.00;;
18048;SDS011;9149;47.002;8.604;2023-06-22T01:19:45;10.30;;;3.80;;
18048;SDS011;9149;47.002;8.604;2023-06-22T01:22:15;10.50;;;4.00;;
18048;SDS011;9149;47.002;8.604;2023-06-22T01:24:46;11.77;;;4.57;;
18048;SDS011;9149;47.002;8.604;2023-06-22T01:27:18;12.52;;;4.10;;
18048;SDS011;9149;47.002;8.604;2023-06-22T01:29:55;17.27;;;3.78;;
18048;SDS011;9149;47.002;8.604;2023-06-22T01:32:27;14.60;;;4.72;;
18048;SDS011;9149;47.002;8.604;2023-06-22T01:34:57;9.32;;;3.92;;
18048;SDS011;9149;47.002;8.604;2023-06-22T01:37:26;16.73;;;4.97;;
18048;SDS011;9149;47.002;8.604;2023-06-22T01:39:54;8.30;;;4.15;;
18048;SDS011;9149;47.002;8.604;2023-06-22T01:42:23;12.55;;;4.40;;
18048;SDS011;9149;47.002;8.604;2023-06-22T01:44:51;10.50;;;4.15;;
18048;SDS011;9149;47.002;8.604;2023-06-22T01:47:20;9.88;;;3.60;;
18048;SDS011;9149;47.002;8.604;2023-06-22T01:49:49;10.23;;;4.05;;
18048;SDS011;9149;47.002;8.604;2023-06-22T01:52:19;11.45;;;3.80;;
18048;SDS011;9149;47.002;8.604;2023-06-22T01:54:48;9.27;;;4.25;;
18048;SDS011;9149;47.002;8.604;2023-06-22T01:57:18;10.48;;;3.97;;
18048;SDS011;9149;47.002;8.604;2023-06-22T01:59:48;12.32;;;4.07;;
18048;SDS011;9149;47.002;8.604;2023-06-22T02:02:16;11.02;;;4.00;;
18048;SDS011;9149;47.002;8.604;2023-06-22T02:04:51;14.25;;;4.82;;
18048;SDS011;9149;47.002;8.604;2023-06-22T02:07:22;13.40;;;4.43;;
18048;SDS011;9149;47.002;8.604;2023-06-22T02:09:51;13.40;;;4.28;;
18048;SDS011;9149;47.002;8.604;2023-06-22T02:12:21;10.10;;;4.10;;
18048;SDS011;9149;47.002;8.604;2023-06-22T02:14:49;10.52;;;4.72;;
18048;SDS011;9149;47.002;8.604;2023-06-22T02:17:18;10.20;;;4.45;;
18048;SDS011;9149;47.002;8.604;2023-06-22T02:19:46;10.15;;;3.80;;
18048;SDS011;9149;47.002;8.604;2023-06-22T02:22:15;10.32;;;4.45;;
18048;SDS011;9149;47.002;8.604;2023-06-22T02:24:43;13.40;;;4.28;;
18048;SDS011;9149;47.002;8.604;2023-06-22T02:27:11;12.70;;;4.50;;
18048;SDS011;9149;47.002;8.604;2023-06-22T02:29:38;13.75;;;4.38;;
18048;SDS011;9149;47.002;8.604;2023-06-22T02:32:08;8.85;;;4.30;;
18048;SDS011;9149;47.002;8.604;2023-06-22T02:34:53;9.25;;;4.10;;
18048;SDS011;9149;47.002;8.604;2023-06-22T02:37:24;10.48;;;4.78;;
18048;SDS011;9149;47.002;8.604;2023-06-22T02:39:56;11.15;;;3.97;;
18048;SDS011;9149;47.002;8.604;2023-06-22T02:42:24;12.05;;;4.20;;
18048;SDS011;9149;47.002;8.604;2023-06-22T02:44:52;12.15;;;4.10;;
18048;SDS011;9149;47.002;8.604;2023-06-22T02:47:20;5.78;;;3.65;;
18048;SDS011;9149;47.002;8.604;2023-06-22T02:49:47;12.00;;;3.55;;
18048;SDS011;9149;47.002;8.604;2023-06-22T02:52:15;15.27;;;4.45;;
18048;SDS011;9149;47.002;8.604;2023-06-22T02:54:44;20.90;;;4.15;;
18048;SDS011;9149;47.002;8.604;2023-06-22T02:57:13;8.63;;;4.13;;
18048;SDS011;9149;47.002;8.604;2023-06-22T02:59:42;13.13;;;4.35;;
18048;SDS011;9149;47.002;8.604;2023-06-22T03:02:11;10.00;;;4.28;;
18048;SDS011;9149;47.002;8.604;2023-06-22T03:04:39;16.42;;;4.68;;
18048;SDS011;9149;47.002;8.604;2023-06-22T03:07:07;8.23;;;4.00;;
18048;SDS011;9149;47.002;8.604;2023-06-22T03:09:35;9.95;;;4.57;;
18048;SDS011;9149;47.002;8.604;2023-06-22T03:12:04;8.43;;;4.28;;
18048;SDS011;9149;47.002;8.604;2023-06-22T03:14:41;8.32;;;4.50;;
18048;SDS011;9149;47.002;8.604;2023-06-22T03:17:09;11.82;;;4.28;;
18048;SDS011;9149;47.002;8.604;2023-06-22T03:19:37;10.10;;;4.43;;
18048;SDS011;9149;47.002;8.604;2023-06-22T03:22:05;13.55;;;4.97;;
18048;SDS011;9149;47.002;8.604;2023-06-22T03:24:33;16.83;;;4.65;;
18048;SDS011;9149;47.002;8.604;2023-06-22T03:27:01;13.13;;;4.32;;
18048;SDS011;9149;47.002;8.604;2023-06-22T03:29:34;10.27;;;4.13;;
18048;SDS011;9149;47.002;8.604;2023-06-22T03:32:02;8.07;;;4.03;;
18048;SDS011;9149;47.002;8.604;2023-06-22T03:34:31;17.63;;;4.85;;
18048;SDS011;9149;47.002;8.604;2023-06-22T03:37:01;11.23;;;4.68;;
18048;SDS011;9149;47.002;8.604;2023-06-22T03:39:29;8.65;;;4.13;;
18048;SDS011;9149;47.002;8.604;2023-06-22T03:41:57;12.60;;;4.28;;
18048;SDS011;9149;47.002;8.604;2023-06-22T03:44:25;9.93;;;3.65;;
18048;SDS011;9149;47.002;8.604;2023-06-22T03:46:54;13.00;;;4.18;;
18048;SDS011;9149;47.002;8.604;2023-06-22T03:49:22;8.43;;;4.28;;
18048;SDS011;9149;47.002;8.604;2023-06-22T03:51:49;13.38;;;4.38;;
18048;SDS011;9149;47.002;8.604;2023-06-22T03:54:17;14.75;;;4.20;;
18048;SDS011;9149;47.002;8.604;2023-06-22T03:56:45;21.55;;;4.30;;
18048;SDS011;9149;47.002;8.604;2023-06-22T03:59:12;11.98;;;3.80;;
18048;SDS011;9149;47.002;8.604;2023-06-22T04:01:40;10.55;;;4.22;;
18048;SDS011;9149;47.002;8.604;2023-06-22T04:04:09;15.48;;;4.00;;
18048;SDS011;9149;47.002;8.604;2023-06-22T04:06:37;11.98;;;4.18;;
18048;SDS011;9149;47.002;8.604;2023-06-22T04:09:05;15.70;;;4.57;;
18048;SDS011;9149;47.002;8.604;2023-06-22T04:11:32;10.20;;;4.10;;
18048;SDS011;9149;47.002;8.604;2023-06-22T04:14:00;12.18;;;4.20;;
18048;SDS011;9149;47.002;8.604;2023-06-22T04:16:28;9.95;;;4.57;;
18048;SDS011;9149;47.002;8.604;2023-06-22T04:18:55;13.18;;;4.53;;
18048;SDS011;9149;47.002;8.604;2023-06-22T04:21:24;8.98;;;4.45;;
18048;SDS011;9149;47.002;8.604;2023-06-22T04:23:52;17.60;;;4.80;;
18048;SDS011;9149;47.002;8.604;2023-06-22T04:26:20;14.45;;;4.25;;
18048;SDS011;9149;47.002;8.604;2023-06-22T04:28:48;13.30;;;4.30;;
18048;SDS011;9149;47.002;8.604;2023-06-22T04:31:18;5.95;;;3.42;;
18048;SDS011;9149;47.002;8.604;2023-06-22T04:33:46;18.40;;;4.97;;
18048;SDS011;9149;47.002;8.604;2023-06-22T04:36:13;9.40;;;4.45;;
18048;SDS011;9149;47.002;8.604;2023-06-22T04:38:42;11.70;;;4.28;;
18048;SDS011;9149;47.002;8.604;2023-06-22T04:41:10;11.65;;;5.50;;
18048;SDS011;9149;47.002;8.604;2023-06-22T04:43:40;13.98;;;5.68;;
18048;SDS011;9149;47.002;8.604;2023-06-22T04:46:08;12.55;;;5.22;;
18048;SDS011;9149;47.002;8.604;2023-06-22T04:48:35;13.35;;;5.53;;
18048;SDS011;9149;47.002;8.604;2023-06-22T04:51:03;15.68;;;5.78;;
18048;SDS011;9149;47.002;8.604;2023-06-22T04:53:31;23.48;;;5.60;;
18048;SDS011;9149;47.002;8.604;2023-06-22T04:56:00;10.45;;;5.10;;
18048;SDS011;9149;47.002;8.604;2023-06-22T04:58:30;13.48;;;5.30;;
18048;SDS011;9149;47.002;8.604;2023-06-22T05:00:58;15.43;;;5.68;;
18048;SDS011;9149;47.002;8.604;2023-06-22T05:03:26;10.75;;;4.80;;
18048;SDS011;9149;47.002;8.604;2023-06-22T05:05:54;12.07;;;4.75;;
18048;SDS011;9149;47.002;8.604;2023-06-22T05:08:22;10.85;;;5.03;;
18048;SDS011;9149;47.002;8.604;2023-06-22T05:10:52;17.50;;;5.25;;
18048;SDS011;9149;47.002;8.604;2023-06-22T05:13:32;10.98;;;4.70;;
18048;SDS011;9149;47.002;8.604;2023-06-22T05:16:00;12.77;;;5.05;;
18048;SDS011;9149;47.002;8.604;2023-06-22T05:18:30;14.23;;;4.72;;
18048;SDS011;9149;47.002;8.604;2023-06-22T05:20:58;9.18;;;4.25;;
18048;SDS011;9149;47.002;8.604;2023-06-22T05:23:26;10.85;;;4.13;;
18048;SDS011;9149;47.002;8.604;2023-06-22T05:25:54;9.35;;;4.85;;
18048;SDS011;9149;47.002;8.604;2023-06-22T05:28:24;9.45;;;4.68;;
18048;SDS011;9149;47.002;8.604;2023-06-22T05:30:53;15.75;;;4.95;;
18048;SDS011;9149;47.002;8.604;2023-06-22T05:33:21;12.98;;;4.93;;
18048;SDS011;9149;47.002;8.604;2023-06-22T05:35:48;15.55;;;5.38;;
18048;SDS011;9149;47.002;8.604;2023-06-22T05:38:16;14.35;;;4.80;;
18048;SDS011;9149;47.002;8.604;2023-06-22T05:40:43;13.13;;;4.68;;
18048;SDS011;9149;47.002;8.604;2023-06-22T05:43:11;12.57;;;5.28;;
18048;SDS011;9149;47.002;8.604;2023-06-22T05:45:39;14.90;;;5.28;;
18048;SDS011;9149;47.002;8.604;2023-06-22T05:48:08;10.23;;;5.00;;
18048;SDS011;9149;47.002;8.604;2023-06-22T05:50:36;15.95;;;4.88;;
18048;SDS011;9149;47.002;8.604;2023-06-22T05:53:04;18.67;;;5.18;;
18048;SDS011;9149;47.002;8.604;2023-06-22T05:55:33;17.80;;;5.47;;
18048;SDS011;9149;47.002;8.604;2023-06-22T05:58:01;13.40;;;5.53;;
18048;SDS011;9149;47.002;8.604;2023-06-22T06:00:30;19.83;;;5.13;;
18048;SDS011;9149;47.002;8.604;2023-06-22T06:02:58;12.73;;;5.20;;
18048;SDS011;9149;47.002;8.604;2023-06-22T06:05:31;13.55;;;5.28;;
18048;SDS011;9149;47.002;8.604;2023-06-22T06:07:59;13.50;;;4.90;;
18048;SDS011;9149;47.002;8.604;2023-06-22T06:10:27;12.52;;;5.63;;
18048;SDS011;9149;47.002;8.604;2023-06-22T06:12:56;14.48;;;5.45;;
18048;SDS011;9149;47.002;8.604;2023-06-22T06:15:24;14.27;;;5.63;;
18048;SDS011;9149;47.002;8.604;2023-06-22T06:17:52;17.88;;;5.03;;
18048;SDS011;9149;47.002;8.604;2023-06-22T06:20:21;12.27;;;5.20;;
18048;SDS011;9149;47.002;8.604;2023-06-22T06:22:50;12.20;;;5.50;;
18048;SDS011;9149;47.002;8.604;2023-06-22T06:25:18;13.65;;;4.72;;
18048;SDS011;9149;47.002;8.604;2023-06-22T06:27:48;11.27;;;5.18;;
18048;SDS011;9149;47.002;8.604;2023-06-22T06:30:17;15.40;;;5.53;;
18048;SDS011;9149;47.002;8.604;2023-06-22T06:32:45;15.18;;;5.28;;
18048;SDS011;9149;47.002;8.604;2023-06-22T06:35:13;20.52;;;5.47;;
18048;SDS011;9149;47.002;8.604;2023-06-22T06:37:43;12.15;;;5.38;;
18048;SDS011;9149;47.002;8.604;2023-06-22T06:40:12;17.55;;;5.68;;
18048;SDS011;9149;47.002;8.604;2023-06-22T06:42:41;16.17;;;5.78;;
18048;SDS011;9149;47.002;8.604;2023-06-22T06:45:11;18.23;;;6.18;;
18048;SDS011;9149;47.002;8.604;2023-06-22T06:47:39;14.52;;;5.85;;
18048;SDS011;9149;47.002;8.604;2023-06-22T06:50:07;14.32;;;5.60;;
18048;SDS011;9149;47.002;8.604;2023-06-22T06:52:35;19.77;;;6.20;;
18048;SDS011;9149;47.002;8.604;2023-06-22T06:55:05;12.30;;;5.13;;
18048;SDS011;9149;47.002;8.604;2023-06-22T06:57:35;16.15;;;6.65;;
18048;SDS011;9149;47.002;8.604;2023-06-22T07:00:04;21.25;;;6.22;;
18048;SDS011;9149;47.002;8.604;2023-06-22T07:02:39;12.68;;;5.90;;
18048;SDS011;9149;47.002;8.604;2023-06-22T07:05:07;14.20;;;5.45;;
18048;SDS011;9149;47.002;8.604;2023-06-22T07:07:35;13.23;;;5.38;;
18048;SDS011;9149;47.002;8.604;2023-06-22T07:10:04;13.45;;;5.80;;
18048;SDS011;9149;47.002;8.604;2023-06-22T07:12:33;15.20;;;6.05;;
18048;SDS011;9149;47.002;8.604;2023-06-22T07:15:02;12.57;;;5.55;;
18048;SDS011;9149;47.002;8.604;2023-06-22T07:17:30;15.77;;;5.60;;
18048;SDS011;9149;47.002;8.604;2023-06-22T07:19:58;12.30;;;6.18;;
18048;SDS011;9149;47.002;8.604;2023-06-22T07:22:26;12.10;;;5.47;;
18048;SDS011;9149;47.002;8.604;2023-06-22T07:24:54;13.60;;;6.03;;
18048;SDS011;9149;47.002;8.604;2023-06-22T07:27:22;12.60;;;6.10;;
18048;SDS011;9149;47.002;8.604;2023-06-22T07:29:50;14.38;;;6.07;;
18048;SDS011;9149;47.002;8.604;2023-06-22T07:32:19;15.50;;;6.07;;
18048;SDS011;9149;47.002;8.604;2023-06-22T07:34:46;14.23;;;6.40;;
18048;SDS011;9149;47.002;8.604;2023-06-22T07:37:14;14.38;;;5.90;;
18048;SDS011;9149;47.002;8.604;2023-06-22T07:39:42;16.50;;;5.63;;
18048;SDS011;9149;47.002;8.604;2023-06-22T07:42:09;13.30;;;6.22;;
18048;SDS011;9149;47.002;8.604;2023-06-22T07:44:37;17.00;;;5.97;;
18048;SDS011;9149;47.002;8.604;2023-06-22T07:47:05;14.02;;;6.25;;
18048;SDS011;9149;47.002;8.604;2023-06-22T07:49:34;13.63;;;6.03;;
18048;SDS011;9149;47.002;8.604;2023-06-22T07:52:02;19.85;;;6.53;;
18048;SDS011;9149;47.002;8.604;2023-06-22T07:54:32;12.63;;;6.18;;
18048;SDS011;9149;47.002;8.604;2023-06-22T07:57:00;12.70;;;5.72;;
18048;SDS011;9149;47.002;8.604;2023-06-22T07:59:27;13.05;;;5.50;;
18048;SDS011;9149;47.002;8.604;2023-06-22T08:01:55;12.45;;;5.72;;
18048;SDS011;9149;47.002;8.604;2023-06-22T08:04:23;12.13;;;6.10;;
18048;SDS011;9149;47.002;8.604;2023-06-22T08:06:52;14.63;;;5.95;;
18048;SDS011;9149;47.002;8.604;2023-06-22T08:09:20;16.98;;;6.05;;
18048;SDS011;9149;47.002;8.604;2023-06-22T08:11:48;11.48;;;5.70;;
18048;SDS011;9149;47.002;8.604;2023-06-22T08:14:16;20.35;;;5.88;;
18048;SDS011;9149;47.002;8.604;2023-06-22T08:16:43;10.48;;;5.30;;
18048;SDS011;9149;47.002;8.604;2023-06-22T08:19:11;18.50;;;5.57;;
18048;SDS011;9149;47.002;8.604;2023-06-22T08:21:39;14.68;;;5.88;;
18048;SDS011;9149;47.002;8.604;2023-06-22T08:24:08;15.77;;;5.80;;
18048;SDS011;9149;47.002;8.604;2023-06-22T08:26:35;20.70;;;6.72;;
18048;SDS011;9149;47.002;8.604;2023-06-22T08:29:04;15.45;;;5.68;;
18048;SDS011;9149;47.002;8.604;2023-06-22T08:31:31;13.00;;;5.13;;
18048;SDS011;9149;47.002;8.604;2023-06-22T08:34:01;16.13;;;5.32;;
18048;SDS011;9149;47.002;8.604;2023-06-22T08:36:28;17.83;;;5.70;;
18048;SDS011;9149;47.002;8.604;2023-06-22T08:38:59;19.27;;;5.03;;
18048;SDS011;9149;47.002;8.604;2023-06-22T08:41:29;11.07;;;4.82;;
18048;SDS011;9149;47.002;8.604;2023-06-22T08:43:57;11.93;;;4.70;;
18048;SDS011;9149;47.002;8.604;2023-06-22T08:46:25;16.05;;;5.10;;
18048;SDS011;9149;47.002;8.604;2023-06-22T08:48:57;10.68;;;4.78;;
18048;SDS011;9149;47.002;8.604;2023-06-22T08:51:25;13.18;;;4.50;;
18048;SDS011;9149;47.002;8.604;2023-06-22T08:53:53;13.27;;;4.40;;
18048;SDS011;9149;47.002;8.604;2023-06-22T08:56:20;10.15;;;4.10;;
18048;SDS011;9149;47.002;8.604;2023-06-22T08:58:49;11.25;;;4.18;;
18048;SDS011;9149;47.002;8.604;2023-06-22T09:01:17;16.25;;;4.38;;
18048;SDS011;9149;47.002;8.604;2023-06-22T09:03:44;10.43;;;4.45;;
18048;SDS011;9149;47.002;8.604;2023-06-22T09:06:20;17.17;;;4.10;;
18048;SDS011;9149;47.002;8.604;2023-06-22T09:08:48;14.43;;;3.80;;
18048;SDS011;9149;47.002;8.604;2023-06-22T09:11:16;13.95;;;3.90;;
18048;SDS011;9149;47.002;8.604;2023-06-22T09:13:44;12.88;;;3.92;;
18048;SDS011;9149;47.002;8.604;2023-06-22T09:16:14;15.32;;;4.13;;
18048;SDS011;9149;47.002;8.604;2023-06-22T09:18:41;12.35;;;4.03;;
18048;SDS011;9149;47.002;8.604;2023-06-22T09:21:09;14.30;;;3.95;;
18048;SDS011;9149;47.002;8.604;2023-06-22T09:23:37;10.55;;;4.13;;
18048;SDS011;9149;47.002;8.604;2023-06-22T09:26:05;15.45;;;3.83;;
18048;SDS011;9149;47.002;8.604;2023-06-22T09:28:33;15.68;;;4.50;;
18048;SDS011;9149;47.002;8.604;2023-06-22T09:31:00;7.25;;;3.50;;
18048;SDS011;9149;47.002;8.604;2023-06-22T09:33:30;7.78;;;3.35;;
18048;SDS011;9149;47.002;8.604;2023-06-22T09:35:57;13.38;;;3.42;;
18048;SDS011;9149;47.002;8.604;2023-06-22T09:38:25;12.27;;;4.00;;
18048;SDS011;9149;47.002;8.604;2023-06-22T09:40:52;12.75;;;3.63;;
18048;SDS011;9149;47.002;8.604;2023-06-22T09:43:20;10.30;;;4.03;;
18048;SDS011;9149;47.002;8.604;2023-06-22T09:45:48;15.13;;;3.47;;
18048;SDS011;9149;47.002;8.604;2023-06-22T09:48:15;16.42;;;3.85;;
18048;SDS011;9149;47.002;8.604;2023-06-22T09:50:45;13.88;;;3.42;;
18048;SDS011;9149;47.002;8.604;2023-06-22T09:53:13;17.92;;;3.70;;
18048;SDS011;9149;47.002;8.604;2023-06-22T09:55:40;12.38;;;4.00;;
18048;SDS011;9149;47.002;8.604;2023-06-22T09:58:08;10.93;;;3.70;;
18048;SDS011;9149;47.002;8.604;2023-06-22T10:00:36;17.10;;;4.15;;
18048;SDS011;9149;47.002;8.604;2023-06-22T10:03:04;10.65;;;3.50;;
18048;SDS011;9149;47.002;8.604;2023-06-22T10:05:32;10.60;;;4.22;;
18048;SDS011;9149;47.002;8.604;2023-06-22T10:08:01;17.27;;;4.32;;
18048;SDS011;9149;47.002;8.604;2023-06-22T10:10:29;13.52;;;3.90;;
18048;SDS011;9149;47.002;8.604;2023-06-22T10:12:57;16.65;;;4.03;;
18048;SDS011;9149;47.002;8.604;2023-06-22T10:15:25;17.45;;;4.05;;
18048;SDS011;9149;47.002;8.604;2023-06-22T10:17:54;16.13;;;4.20;;
18048;SDS011;9149;47.002;8.604;2023-06-22T10:20:21;22.92;;;4.18;;
18048;SDS011;9149;47.002;8.604;2023-06-22T10:22:49;12.88;;;4.13;;
18048;SDS011;9149;47.002;8.604;2023-06-22T10:25:18;15.32;;;4.30;;
18048;SDS011;9149;47.002;8.604;2023-06-22T10:27:46;12.88;;;4.03;;
18048;SDS011;9149;47.002;8.604;2023-06-22T10:30:14;13.02;;;3.30;;
18048;SDS011;9149;47.002;8.604;2023-06-22T10:32:42;20.92;;;4.13;;
18048;SDS011;9149;47.002;8.604;2023-06-22T10:35:10;13.93;;;4.20;;
18048;SDS011;9149;47.002;8.604;2023-06-22T10:37:40;21.25;;;4.22;;
18048;SDS011;9149;47.002;8.604;2023-06-22T10:40:09;11.55;;;5.00;;
18048;SDS011;9149;47.002;8.604;2023-06-22T10:42:38;14.00;;;4.45;;
18048;SDS011;9149;47.002;8.604;2023-06-22T10:45:07;13.13;;;4.47;;
18048;SDS011;9149;47.002;8.604;2023-06-22T10:47:34;10.38;;;4.47;;
18048;SDS011;9149;47.002;8.604;2023-06-22T10:50:02;19.23;;;4.65;;
18048;SDS011;9149;47.002;8.604;2023-06-22T10:52:30;14.73;;;4.50;;
18048;SDS011;9149;47.002;8.604;2023-06-22T10:54:58;11.30;;;5.30;;
18048;SDS011;9149;47.002;8.604;2023-06-22T10:57:26;15.27;;;4.57;;
18048;SDS011;9149;47.002;8.604;2023-06-22T10:59:55;14.93;;;4.70;;
18048;SDS011;9149;47.002;8.604;2023-06-22T11:02:22;18.77;;;4.85;;
18048;SDS011;9149;47.002;8.604;2023-06-22T11:04:50;11.95;;;4.68;;
18048;SDS011;9149;47.002;8.604;2023-06-22T11:07:18;13.65;;;4.22;;
18048;SDS011;9149;47.002;8.604;2023-06-22T11:09:46;18.00;;;4.95;;
18048;SDS011;9149;47.002;8.604;2023-06-22T11:12:14;11.13;;;4.82;;
18048;SDS011;9149;47.002;8.604;2023-06-22T11:14:41;20.50;;;4.90;;
18048;SDS011;9149;47.002;8.604;2023-06-22T11:17:10;17.63;;;4.32;;
18048;SDS011;9149;47.002;8.604;2023-06-22T11:19:38;9.02;;;4.43;;
18048;SDS011;9149;47.002;8.604;2023-06-22T11:22:06;10.73;;;4.15;;
18048;SDS011;9149;47.002;8.604;2023-06-22T11:27:20;18.77;;;4.90;;
18048;SDS011;9149;47.002;8.604;2023-06-22T11:29:47;11.32;;;4.35;;
18048;SDS011;9149;47.002;8.604;2023-06-22T11:32:17;11.35;;;4.95;;
18048;SDS011;9149;47.002;8.604;2023-06-22T11:34:45;10.77;;;4.57;;
18048;SDS011;9149;47.002;8.604;2023-06-22T11:37:13;8.95;;;4.40;;
18048;SDS011;9149;47.002;8.604;2023-06-22T11:39:42;17.02;;;4.82;;
18048;SDS011;9149;47.002;8.604;2023-06-22T11:42:13;11.45;;;4.57;;
18048;SDS011;9149;47.002;8.604;2023-06-22T11:44:41;11.93;;;4.50;;
18048;SDS011;9149;47.002;8.604;2023-06-22T11:47:09;14.32;;;4.55;;
18048;SDS011;9149;47.002;8.604;2023-06-22T11:49:38;11.52;;;4.53;;
18048;SDS011;9149;47.002;8.604;2023-06-22T11:52:06;18.00;;;5.10;;
18048;SDS011;9149;47.002;8.604;2023-06-22T11:54:34;19.15;;;4.88;;
18048;SDS011;9149;47.002;8.604;2023-06-22T11:57:02;10.57;;;5.00;;
18048;SDS011;9149;47.002;8.604;2023-06-22T11:59:29;14.50;;;4.70;;
18048;SDS011;9149;47.002;8.604;2023-06-22T12:01:57;10.57;;;4.18;;
18048;SDS011;9149;47.002;8.604;2023-06-22T12:04:25;18.02;;;4.72;;
18048;SDS011;9149;47.002;8.604;2023-06-22T12:06:54;9.90;;;4.22;;
18048;SDS011;9149;47.002;8.604;2023-06-22T12:09:22;14.25;;;4.40;;
18048;SDS011;9149;47.002;8.604;2023-06-22T12:11:49;11.90;;;4.32;;
18048;SDS011;9149;47.002;8.604;2023-06-22T12:14:17;11.93;;;4.20;;
18048;SDS011;9149;47.002;8.604;2023-06-22T12:16:45;14.23;;;5.00;;
18048;SDS011;9149;47.002;8.604;2023-06-22T12:19:12;19.75;;;5.07;;
18048;SDS011;9149;47.002;8.604;2023-06-22T12:21:40;14.50;;;5.10;;
18048;SDS011;9149;47.002;8.604;2023-06-22T12:24:13;15.02;;;4.80;;
18048;SDS011;9149;47.002;8.604;2023-06-22T12:26:40;10.40;;;4.95;;
18048;SDS011;9149;47.002;8.604;2023-06-22T12:29:08;12.60;;;4.80;;
18048;SDS011;9149;47.002;8.604;2023-06-22T12:31:36;12.98;;;5.13;;
18048;SDS011;9149;47.002;8.604;2023-06-22T12:34:05;11.45;;;5.28;;
18048;SDS011;9149;47.002;8.604;2023-06-22T12:36:32;11.98;;;5.57;;
18048;SDS011;9149;47.002;8.604;2023-06-22T12:39:00;14.77;;;5.15;;
18048;SDS011;9149;47.002;8.604;2023-06-22T12:41:29;14.95;;;4.70;;
18048;SDS011;9149;47.002;8.604;2023-06-22T12:43:56;10.27;;;4.43;;
18048;SDS011;9149;47.002;8.604;2023-06-22T12:46:24;15.45;;;4.38;;
18048;SDS011;9149;47.002;8.604;2023-06-22T12:48:52;17.70;;;4.85;;
18048;SDS011;9149;47.002;8.604;2023-06-22T12:51:20;13.85;;;4.25;;
18048;SDS011;9149;47.002;8.604;2023-06-22T12:53:48;12.95;;;4.50;;
18048;SDS011;9149;47.002;8.604;2023-06-22T12:56:15;10.75;;;4.18;;
18048;SDS011;9149;47.002;8.604;2023-06-22T12:58:44;11.27;;;4.50;;
18048;SDS011;9149;47.002;8.604;2023-06-22T13:01:12;10.93;;;3.92;;
18048;SDS011;9149;47.002;8.604;2023-06-22T13:03:41;14.50;;;4.85;;
18048;SDS011;9149;47.002;8.604;2023-06-22T13:06:09;12.45;;;4.18;;
18048;SDS011;9149;47.002;8.604;2023-06-22T13:08:36;11.80;;;4.40;;
18048;SDS011;9149;47.002;8.604;2023-06-22T13:11:07;19.52;;;4.43;;
18048;SDS011;9149;47.002;8.604;2023-06-22T13:13:35;20.80;;;4.88;;
18048;SDS011;9149;47.002;8.604;2023-06-22T13:16:04;12.15;;;4.40;;
18048;SDS011;9149;47.002;8.604;2023-06-22T13:18:31;12.68;;;4.82;;
18048;SDS011;9149;47.002;8.604;2023-06-22T13:21:00;17.02;;;5.68;;
18048;SDS011;9149;47.002;8.604;2023-06-22T13:23:28;13.25;;;4.55;;
18048;SDS011;9149;47.002;8.604;2023-06-22T13:25:55;14.35;;;5.10;;
18048;SDS011;9149;47.002;8.604;2023-06-22T13:28:23;17.27;;;4.57;;
18048;SDS011;9149;47.002;8.604;2023-06-22T13:30:54;13.98;;;5.10;;
18048;SDS011;9149;47.002;8.604;2023-06-22T13:33:23;14.23;;;5.50;;
18048;SDS011;9149;47.002;8.604;2023-06-22T13:35:51;14.43;;;5.28;;
18048;SDS011;9149;47.002;8.604;2023-06-22T13:38:18;14.88;;;5.15;;
18048;SDS011;9149;47.002;8.604;2023-06-22T13:40:46;13.65;;;5.47;;
18048;SDS011;9149;47.002;8.604;2023-06-22T13:43:15;20.42;;;6.18;;
18048;SDS011;9149;47.002;8.604;2023-06-22T13:45:43;16.05;;;4.68;;
18048;SDS011;9149;47.002;8.604;2023-06-22T13:48:11;13.13;;;4.47;;
18048;SDS011;9149;47.002;8.604;2023-06-22T13:50:40;10.45;;;3.63;;
18048;SDS011;9149;47.002;8.604;2023-06-22T13:53:07;9.88;;;4.18;;
18048;SDS011;9149;47.002;8.604;2023-06-22T13:55:35;14.63;;;4.03;;
18048;SDS011;9149;47.002;8.604;2023-06-22T13:58:02;13.65;;;4.03;;
18048;SDS011;9149;47.002;8.604;2023-06-22T14:00:30;10.68;;;3.00;;
18048;SDS011;9149;47.002;8.604;2023-06-22T14:02:58;9.95;;;3.17;;
18048;SDS011;9149;47.002;8.604;2023-06-22T14:05:26;18.55;;;3.38;;
18048;SDS011;9149;47.002;8.604;2023-06-22T14:07:55;15.20;;;3.40;;
18048;SDS011;9149;47.002;8.604;2023-06-22T14:10:23;12.02;;;3.08;;
18048;SDS011;9149;47.002;8.604;2023-06-22T14:12:51;6.97;;;2.78;;
18048;SDS011;9149;47.002;8.604;2023-06-22T14:15:22;22.30;;;3.47;;
18048;SDS011;9149;47.002;8.604;2023-06-22T14:17:49;9.88;;;2.80;;
18048;SDS011;9149;47.002;8.604;2023-06-22T14:20:17;10.20;;;2.90;;
18048;SDS011;9149;47.002;8.604;2023-06-22T14:22:44;14.63;;;2.55;;
18048;SDS011;9149;47.002;8.604;2023-06-22T14:25:13;6.97;;;2.83;;
18048;SDS011;9149;47.002;8.604;2023-06-22T14:27:41;7.47;;;2.78;;
18048;SDS011;9149;47.002;8.604;2023-06-22T14:30:10;11.35;;;2.42;;
18048;SDS011;9149;47.002;8.604;2023-06-22T14:32:38;20.20;;;2.63;;
18048;SDS011;9149;47.002;8.604;2023-06-22T14:35:06;9.55;;;2.40;;
18048;SDS011;9149;47.002;8.604;2023-06-22T14:37:34;10.02;;;2.60;;
18048;SDS011;9149;47.002;8.604;2023-06-22T14:40:01;7.57;;;2.20;;
18048;SDS011;9149;47.002;8.604;2023-06-22T14:42:31;5.10;;;1.95;;
18048;SDS011;9149;47.002;8.604;2023-06-22T14:44:58;10.10;;;2.13;;
18048;SDS011;9149;47.002;8.604;2023-06-22T14:47:27;9.13;;;2.28;;
18048;SDS011;9149;47.002;8.604;2023-06-22T14:49:55;8.82;;;2.30;;
18048;SDS011;9149;47.002;8.604;2023-06-22T14:52:22;13.10;;;2.47;;
18048;SDS011;9149;47.002;8.604;2023-06-22T14:54:50;10.38;;;2.13;;
18048;SDS011;9149;47.002;8.604;2023-06-22T14:57:18;11.50;;;2.22;;
18048;SDS011;9149;47.002;8.604;2023-06-22T14:59:48;8.50;;;2.88;;